sensor_id;sensor_type;location;lat;lon;timestamp;pressure;altitude;pressure_sealevel;temperature;humidity
46756;BME280;32506;52.826;-1.192;2022-12-05T00:00:14;101589.84;;;5.34;71.99
46756;BME280;32506;52.826;-1.192;2022-12-05T00:02:39;101588.88;;;5.35;72.35
46756;BME280;32506;52.826;-1.192;2022-12-05T00:05:05;101591.53;;;5.35;72.16
46756;BME280;32506;52.826;-1.192;2022-12-05T00:07:31;101587.09;;;5.36;71.86
46756;BME280;32506;52.826;-1.192;2022-12-05T00:09:56;101587.09;;;5.36;72.08
46756;BME280;32506;52.826;-1.192;2022-12-05T00:12:22;101591.38;;;5.37;71.82
46756;BME280;32506;52.826;-1.192;2022-12-05T00:14:47;101599.31;;;5.37;71.77
46756;BME280;32506;52.826;-1.192;2022-12-05T00:17:13;101597.53;;;5.37;71.92
46756;BME280;32506;52.826;-1.192;2022-12-05T00:19:38;101597.53;;;5.37;71.80
46756;BME280;32506;52.826;-1.192;2022-12-05T00:22:03;101607.97;;;5.39;71.96
46756;BME280;32506;52.826;-1.192;2022-12-05T00:24:29;101609.81;;;5.38;72.38
46756;BME280;32506;52.826;-1.192;2022-12-05T00:26:54;101609.81;;;5.38;71.78
46756;BME280;32506;52.826;-1.192;2022-12-05T00:29:20;101607.97;;;5.39;71.81
46756;BME280;32506;52.826;-1.192;2022-12-05T00:31:45;101607.00;;;5.40;71.55
46756;BME280;32506;52.826;-1.192;2022-12-05T00:34:11;101613.94;;;5.41;71.79
46756;BME280;32506;52.826;-1.192;2022-12-05T00:36:36;101609.50;;;5.42;71.63
46756;BME280;32506;52.826;-1.192;2022-12-05T00:39:05;101612.16;;;5.42;71.59
46756;BME280;32506;52.826;-1.192;2022-12-05T00:41:31;101612.97;;;5.42;71.96
46756;BME280;32506;52.826;-1.192;2022-12-05T00:43:58;101608.50;;;5.43;72.01
46756;BME280;32506;52.826;-1.192;2022-12-05T00:46:26;101604.03;;;5.43;71.53
46756;BME280;32506;52.826;-1.192;2022-12-05T00:48:52;101606.69;;;5.43;71.63
46756;BME280;32506;52.826;-1.192;2022-12-05T00:51:21;101606.69;;;5.43;71.92
46756;BME280;32506;52.826;-1.192;2022-12-05T00:53:48;101611.00;;;5.44;71.53
46756;BME280;32506;52.826;-1.192;2022-12-05T00:56:18;101606.53;;;5.45;71.77
46756;BME280;32506;52.826;-1.192;2022-12-05T00:58:44;101609.16;;;5.45;71.81
46756;BME280;32506;52.826;-1.192;2022-12-05T01:03:35;101604.72;;;5.45;72.03
46756;BME280;32506;52.826;-1.192;2022-12-05T01:06:01;101614.31;;;5.46;71.88
46756;BME280;32506;52.826;-1.192;2022-12-05T01:08:26;101624.09;;;5.46;71.93
46756;BME280;32506;52.826;-1.192;2022-12-05T01:10:56;101606.38;;;5.46;71.76
46756;BME280;32506;52.826;-1.192;2022-12-05T01:13:22;101616.97;;;5.46;71.93
46756;BME280;32506;52.826;-1.192;2022-12-05T01:15:48;101618.81;;;5.46;71.92
46756;BME280;32506;52.826;-1.192;2022-12-05T01:18:15;101617.81;;;5.47;71.97
46756;BME280;32506;52.826;-1.192;2022-12-05T01:20:41;101616.00;;;5.47;72.19
46756;BME280;32506;52.826;-1.192;2022-12-05T01:23:08;101608.03;;;5.47;72.07
46756;BME280;32506;52.826;-1.192;2022-12-05T01:25:33;101616.00;;;5.47;72.01
46756;BME280;32506;52.826;-1.192;2022-12-05T01:27:59;101611.50;;;5.48;71.97
46756;BME280;32506;52.826;-1.192;2022-12-05T01:30:25;101621.28;;;5.47;72.08
46756;BME280;32506;52.826;-1.192;2022-12-05T01:32:50;101614.03;;;5.49;71.79
46756;BME280;32506;52.826;-1.192;2022-12-05T01:35:16;101622.97;;;5.48;71.92
46756;BME280;32506;52.826;-1.192;2022-12-05T01:37:41;101623.78;;;5.49;72.10
46756;BME280;32506;52.826;-1.192;2022-12-05T01:40:07;101626.44;;;5.49;71.98
46756;BME280;32506;52.826;-1.192;2022-12-05T01:42:33;101626.44;;;5.49;72.05
46756;BME280;32506;52.826;-1.192;2022-12-05T01:45:05;101617.66;;;5.48;71.69
46756;BME280;32506;52.826;-1.192;2022-12-05T01:47:34;101615.00;;;5.48;72.23
46756;BME280;32506;52.826;-1.192;2022-12-05T01:50:00;101618.47;;;5.49;72.39
46756;BME280;32506;52.826;-1.192;2022-12-05T01:52:28;101622.00;;;5.49;71.95
46756;BME280;32506;52.826;-1.192;2022-12-05T01:55:05;101619.34;;;5.49;71.69
46756;BME280;32506;52.826;-1.192;2022-12-05T01:57:31;101622.81;;;5.50;72.17
46756;BME280;32506;52.826;-1.192;2022-12-05T02:00:03;101623.78;;;5.49;72.45
46756;BME280;32506;52.826;-1.192;2022-12-05T02:02:30;101620.97;;;5.50;71.99
46756;BME280;32506;52.826;-1.192;2022-12-05T02:05:12;101624.63;;;5.49;72.15
46756;BME280;32506;52.826;-1.192;2022-12-05T02:07:40;101624.47;;;5.51;71.97
46756;BME280;32506;52.826;-1.192;2022-12-05T02:10:08;101623.63;;;5.50;71.98
46756;BME280;32506;52.826;-1.192;2022-12-05T02:12:34;101623.63;;;5.50;71.96
46756;BME280;32506;52.826;-1.192;2022-12-05T02:15:21;101619.19;;;5.51;71.96
46756;BME280;32506;52.826;-1.192;2022-12-05T02:17:58;101622.66;;;5.51;72.10
46756;BME280;32506;52.826;-1.192;2022-12-05T02:23:31;101620.00;;;5.51;72.34
46756;BME280;32506;52.826;-1.192;2022-12-05T02:31:34;101621.66;;;5.52;72.07
46756;BME280;32506;52.826;-1.192;2022-12-05T02:36:45;101629.63;;;5.52;72.07
46756;BME280;32506;52.826;-1.192;2022-12-05T02:39:17;101636.59;;;5.53;72.34
46756;BME280;32506;52.826;-1.192;2022-12-05T02:41:59;101634.78;;;5.54;72.24
46756;BME280;32506;52.826;-1.192;2022-12-05T02:44:36;101630.28;;;5.54;72.17
46756;BME280;32506;52.826;-1.192;2022-12-05T02:47:05;101631.97;;;5.55;72.21
46756;BME280;32506;52.826;-1.192;2022-12-05T02:49:34;101632.94;;;5.54;71.91
46756;BME280;32506;52.826;-1.192;2022-12-05T02:52:02;101630.97;;;5.57;72.16
46756;BME280;32506;52.826;-1.192;2022-12-05T02:54:34;101624.84;;;5.56;71.81
46756;BME280;32506;52.826;-1.192;2022-12-05T02:57:00;101627.50;;;5.56;71.76
46756;BME280;32506;52.826;-1.192;2022-12-05T02:59:27;101627.34;;;5.58;72.07
46756;BME280;32506;52.826;-1.192;2022-12-05T03:01:52;101627.34;;;5.58;72.01
46756;BME280;32506;52.826;-1.192;2022-12-05T03:04:20;101630.66;;;5.60;71.61
46756;BME280;32506;52.826;-1.192;2022-12-05T03:11:48;101632.34;;;5.61;71.58
46756;BME280;32506;52.826;-1.192;2022-12-05T03:14:20;101636.81;;;5.60;71.75
46756;BME280;32506;52.826;-1.192;2022-12-05T03:16:51;101634.84;;;5.62;71.68
46756;BME280;32506;52.826;-1.192;2022-12-05T03:19:24;101632.34;;;5.61;72.05
46756;BME280;32506;52.826;-1.192;2022-12-05T03:24:16;101631.34;;;5.62;72.04
46756;BME280;32506;52.826;-1.192;2022-12-05T03:29:51;101646.94;;;5.65;71.89
46756;BME280;32506;52.826;-1.192;2022-12-05T03:37:35;101644.31;;;5.65;71.91
46756;BME280;32506;52.826;-1.192;2022-12-05T03:42:39;101645.16;;;5.65;72.03
46756;BME280;32506;52.826;-1.192;2022-12-05T03:45:17;101645.81;;;5.67;71.82
46756;BME280;32506;52.826;-1.192;2022-12-05T03:47:59;101646.78;;;5.66;71.86
46756;BME280;32506;52.826;-1.192;2022-12-05T03:50:28;101648.47;;;5.67;72.29
46756;BME280;32506;52.826;-1.192;2022-12-05T03:52:57;101644.13;;;5.66;71.93
46756;BME280;32506;52.826;-1.192;2022-12-05T03:55:26;101652.78;;;5.68;71.63
46756;BME280;32506;52.826;-1.192;2022-12-05T03:57:57;101651.94;;;5.68;72.43
46756;BME280;32506;52.826;-1.192;2022-12-05T04:00:26;101648.47;;;5.67;71.88
46756;BME280;32506;52.826;-1.192;2022-12-05T04:03:11;101662.41;;;5.69;72.10
46756;BME280;32506;52.826;-1.192;2022-12-05T04:05:43;101653.63;;;5.69;72.15
46756;BME280;32506;52.826;-1.192;2022-12-05T04:10:59;101660.75;;;5.68;71.69
46756;BME280;32506;52.826;-1.192;2022-12-05T04:13:31;101663.25;;;5.70;71.90
46756;BME280;32506;52.826;-1.192;2022-12-05T04:16:02;101664.06;;;5.70;72.26
46756;BME280;32506;52.826;-1.192;2022-12-05T04:18:54;101668.56;;;5.70;71.92
46756;BME280;32506;52.826;-1.192;2022-12-05T04:21:24;101672.88;;;5.71;72.15
46756;BME280;32506;52.826;-1.192;2022-12-05T04:24:13;101672.03;;;5.70;71.53
46756;BME280;32506;52.826;-1.192;2022-12-05T04:27:07;101677.19;;;5.72;72.29
46756;BME280;32506;52.826;-1.192;2022-12-05T04:29:42;101671.03;;;5.71;71.76
46756;BME280;32506;52.826;-1.192;2022-12-05T04:32:10;101668.38;;;5.71;72.18
46756;BME280;32506;52.826;-1.192;2022-12-05T04:34:38;101676.19;;;5.73;72.00
46756;BME280;32506;52.826;-1.192;2022-12-05T04:37:09;101670.06;;;5.72;71.79
46756;BME280;32506;52.826;-1.192;2022-12-05T04:39:52;101669.25;;;5.72;71.73
46756;BME280;32506;52.826;-1.192;2022-12-05T04:42:21;101675.38;;;5.72;71.94
46756;BME280;32506;52.826;-1.192;2022-12-05T04:45:09;101678.84;;;5.73;71.95
46756;BME280;32506;52.826;-1.192;2022-12-05T04:47:39;101682.34;;;5.74;71.82
46756;BME280;32506;52.826;-1.192;2022-12-05T04:50:07;101684.16;;;5.73;72.15
46756;BME280;32506;52.826;-1.192;2022-12-05T04:52:35;101686.66;;;5.75;72.51
46756;BME280;32506;52.826;-1.192;2022-12-05T04:55:09;101685.81;;;5.74;71.83
46756;BME280;32506;52.826;-1.192;2022-12-05T04:57:55;101684.00;;;5.75;72.07
46756;BME280;32506;52.826;-1.192;2022-12-05T05:00:21;101684.16;;;5.73;71.98
46756;BME280;32506;52.826;-1.192;2022-12-05T05:02:56;101694.59;;;5.75;72.03
46756;BME280;32506;52.826;-1.192;2022-12-05T05:05:25;101702.56;;;5.75;72.19
46756;BME280;32506;52.826;-1.192;2022-12-05T05:07:53;101693.78;;;5.74;72.25
46756;BME280;32506;52.826;-1.192;2022-12-05T05:10:24;101702.44;;;5.76;72.09
46756;BME280;32506;52.826;-1.192;2022-12-05T05:12:51;101697.25;;;5.75;72.56
46756;BME280;32506;52.826;-1.192;2022-12-05T05:15:16;101699.78;;;5.76;72.00
46756;BME280;32506;52.826;-1.192;2022-12-05T05:17:42;101694.47;;;5.76;72.05
46756;BME280;32506;52.826;-1.192;2022-12-05T05:20:07;101688.31;;;5.76;72.21
46756;BME280;32506;52.826;-1.192;2022-12-05T05:22:50;101686.50;;;5.76;72.48
46756;BME280;32506;52.826;-1.192;2022-12-05T05:25:17;101690.00;;;5.77;71.94
46756;BME280;32506;52.826;-1.192;2022-12-05T05:27:47;101690.81;;;5.77;72.25
46756;BME280;32506;52.826;-1.192;2022-12-05T05:30:13;101694.47;;;5.76;72.32
46756;BME280;32506;52.826;-1.192;2022-12-05T05:32:38;101689.16;;;5.76;72.24
46756;BME280;32506;52.826;-1.192;2022-12-05T05:35:04;101694.47;;;5.76;72.43
46756;BME280;32506;52.826;-1.192;2022-12-05T05:37:29;101694.47;;;5.76;72.13
46756;BME280;32506;52.826;-1.192;2022-12-05T05:39:54;101696.28;;;5.76;72.19
46756;BME280;32506;52.826;-1.192;2022-12-05T05:42:20;101699.78;;;5.76;72.27
46756;BME280;32506;52.826;-1.192;2022-12-05T05:44:45;101704.38;;;5.74;72.50
46756;BME280;32506;52.826;-1.192;2022-12-05T05:47:11;101702.56;;;5.75;71.82
46756;BME280;32506;52.826;-1.192;2022-12-05T05:49:36;101703.56;;;5.74;72.42
46756;BME280;32506;52.826;-1.192;2022-12-05T05:52:02;101707.19;;;5.72;71.74
46756;BME280;32506;52.826;-1.192;2022-12-05T05:54:27;101709.84;;;5.72;72.08
46756;BME280;32506;52.826;-1.192;2022-12-05T05:56:53;101709.03;;;5.72;71.64
46756;BME280;32506;52.826;-1.192;2022-12-05T05:59:18;101716.13;;;5.71;72.31
46756;BME280;32506;52.826;-1.192;2022-12-05T06:01:44;101716.13;;;5.71;72.07
46756;BME280;32506;52.826;-1.192;2022-12-05T06:04:09;101717.13;;;5.70;72.33
46756;BME280;32506;52.826;-1.192;2022-12-05T06:06:34;101716.44;;;5.68;71.63
46756;BME280;32506;52.826;-1.192;2022-12-05T06:09:00;101722.59;;;5.69;72.06
46756;BME280;32506;52.826;-1.192;2022-12-05T06:11:26;101723.56;;;5.68;71.54
46756;BME280;32506;52.826;-1.192;2022-12-05T06:13:54;101719.25;;;5.67;71.78
46756;BME280;32506;52.826;-1.192;2022-12-05T06:16:20;101720.25;;;5.66;71.95
46756;BME280;32506;52.826;-1.192;2022-12-05T06:18:45;101723.06;;;5.64;71.90
46756;BME280;32506;52.826;-1.192;2022-12-05T06:21:11;101732.81;;;5.64;71.86
46756;BME280;32506;52.826;-1.192;2022-12-05T06:23:38;101728.50;;;5.63;72.18
46756;BME280;32506;52.826;-1.192;2022-12-05T06:26:04;101732.16;;;5.62;71.92
46756;BME280;32506;52.826;-1.192;2022-12-05T06:28:31;101730.47;;;5.61;71.85
46756;BME280;32506;52.826;-1.192;2022-12-05T06:30:56;101732.97;;;5.62;72.22
46756;BME280;32506;52.826;-1.192;2022-12-05T06:33:22;101727.00;;;5.60;72.01
46756;BME280;32506;52.826;-1.192;2022-12-05T06:35:47;101730.47;;;5.61;71.93
46756;BME280;32506;52.826;-1.192;2022-12-05T06:38:13;101734.09;;;5.60;71.83
46756;BME280;32506;52.826;-1.192;2022-12-05T06:40:43;101740.25;;;5.60;72.31
46756;BME280;32506;52.826;-1.192;2022-12-05T06:43:09;101731.44;;;5.60;71.80
46756;BME280;32506;52.826;-1.192;2022-12-05T06:45:38;101732.44;;;5.59;71.93
46756;BME280;32506;52.826;-1.192;2022-12-05T06:48:04;101739.41;;;5.60;72.08
46756;BME280;32506;52.826;-1.192;2022-12-05T06:50:29;101743.88;;;5.59;71.98
46756;BME280;32506;52.826;-1.192;2022-12-05T06:52:55;101740.41;;;5.59;72.02
46756;BME280;32506;52.826;-1.192;2022-12-05T06:55:20;101743.88;;;5.59;72.21
46756;BME280;32506;52.826;-1.192;2022-12-05T06:57:46;101748.22;;;5.60;72.28
46756;BME280;32506;52.826;-1.192;2022-12-05T07:00:12;101745.72;;;5.59;72.00
46756;BME280;32506;52.826;-1.192;2022-12-05T07:02:56;101750.16;;;5.58;72.35
46756;BME280;32506;52.826;-1.192;2022-12-05T07:05:22;101751.16;;;5.57;71.67
46756;BME280;32506;52.826;-1.192;2022-12-05T07:07:47;101751.16;;;5.57;71.95
46756;BME280;32506;52.826;-1.192;2022-12-05T07:10:13;101753.66;;;5.59;72.15
46756;BME280;32506;52.826;-1.192;2022-12-05T07:12:38;101751.03;;;5.59;71.85
46756;BME280;32506;52.826;-1.192;2022-12-05T07:15:04;101748.38;;;5.59;72.21
46756;BME280;32506;52.826;-1.192;2022-12-05T07:17:33;101749.34;;;5.58;72.22
46756;BME280;32506;52.826;-1.192;2022-12-05T07:19:59;101752.81;;;5.58;71.78
46756;BME280;32506;52.826;-1.192;2022-12-05T07:22:24;101756.31;;;5.59;72.13
46756;BME280;32506;52.826;-1.192;2022-12-05T07:24:51;101755.47;;;5.58;71.93
46756;BME280;32506;52.826;-1.192;2022-12-05T07:27:17;101762.59;;;5.58;72.07
46756;BME280;32506;52.826;-1.192;2022-12-05T07:29:43;101767.06;;;5.57;71.93
46756;BME280;32506;52.826;-1.192;2022-12-05T07:32:08;101765.25;;;5.58;72.20
46756;BME280;32506;52.826;-1.192;2022-12-05T07:34:33;101768.88;;;5.57;72.08
46756;BME280;32506;52.826;-1.192;2022-12-05T07:36:59;101775.00;;;5.57;71.67
46756;BME280;32506;52.826;-1.192;2022-12-05T07:39:25;101769.72;;;5.57;72.16
46756;BME280;32506;52.826;-1.192;2022-12-05T07:41:51;101774.03;;;5.58;72.43
46756;BME280;32506;52.826;-1.192;2022-12-05T07:44:16;101776.03;;;5.56;72.15
46756;BME280;32506;52.826;-1.192;2022-12-05T07:46:42;101779.50;;;5.57;72.14
46756;BME280;32506;52.826;-1.192;2022-12-05T07:49:08;101775.00;;;5.57;72.24
46756;BME280;32506;52.826;-1.192;2022-12-05T07:51:34;101768.88;;;5.57;71.98
46756;BME280;32506;52.826;-1.192;2022-12-05T07:54:00;101778.53;;;5.58;72.22
46756;BME280;32506;52.826;-1.192;2022-12-05T07:56:26;101772.50;;;5.55;72.33
46756;BME280;32506;52.826;-1.192;2022-12-05T07:58:52;101775.16;;;5.55;72.14
46756;BME280;32506;52.826;-1.192;2022-12-05T08:01:19;101779.50;;;5.57;71.69
46756;BME280;32506;52.826;-1.192;2022-12-05T08:03:45;101781.31;;;5.56;72.07
46756;BME280;32506;52.826;-1.192;2022-12-05T08:06:13;101790.94;;;5.57;72.10
46756;BME280;32506;52.826;-1.192;2022-12-05T08:08:39;101788.28;;;5.57;72.12
46756;BME280;32506;52.826;-1.192;2022-12-05T08:11:11;101791.78;;;5.58;71.83
46756;BME280;32506;52.826;-1.192;2022-12-05T08:13:37;101785.63;;;5.57;72.05
46756;BME280;32506;52.826;-1.192;2022-12-05T08:16:04;101786.47;;;5.58;72.58
46756;BME280;32506;52.826;-1.192;2022-12-05T08:18:30;101783.81;;;5.58;72.01
46756;BME280;32506;52.826;-1.192;2022-12-05T08:21:01;101799.59;;;5.59;71.84
46756;BME280;32506;52.826;-1.192;2022-12-05T08:23:28;101792.44;;;5.60;72.11
46756;BME280;32506;52.826;-1.192;2022-12-05T08:25:54;101787.13;;;5.60;72.02
46756;BME280;32506;52.826;-1.192;2022-12-05T08:28:20;101799.59;;;5.59;71.86
46756;BME280;32506;52.826;-1.192;2022-12-05T08:30:45;101798.59;;;5.60;72.03
46756;BME280;32506;52.826;-1.192;2022-12-05T08:33:10;101797.59;;;5.61;72.43
46756;BME280;32506;52.826;-1.192;2022-12-05T08:35:36;101799.44;;;5.61;71.72
46756;BME280;32506;52.826;-1.192;2022-12-05T08:38:02;101806.41;;;5.62;72.21
46756;BME280;32506;52.826;-1.192;2022-12-05T08:40:27;101811.72;;;5.62;72.37
46756;BME280;32506;52.826;-1.192;2022-12-05T08:42:53;101810.72;;;5.63;71.74
46756;BME280;32506;52.826;-1.192;2022-12-05T08:45:18;101816.03;;;5.63;72.09
46756;BME280;32506;52.826;-1.192;2022-12-05T08:47:44;101821.19;;;5.64;71.93
46756;BME280;32506;52.826;-1.192;2022-12-05T08:50:09;101825.53;;;5.65;72.02
46756;BME280;32506;52.826;-1.192;2022-12-05T08:52:35;101828.00;;;5.67;72.02
46756;BME280;32506;52.826;-1.192;2022-12-05T08:55:00;101826.19;;;5.67;71.84
46756;BME280;32506;52.826;-1.192;2022-12-05T08:57:25;101830.34;;;5.70;71.94
46756;BME280;32506;52.826;-1.192;2022-12-05T08:59:51;101831.19;;;5.70;72.16
46756;BME280;32506;52.826;-1.192;2022-12-05T09:02:16;101832.84;;;5.71;71.82
46756;BME280;32506;52.826;-1.192;2022-12-05T09:04:42;101843.31;;;5.73;72.33
46756;BME280;32506;52.826;-1.192;2022-12-05T09:07:07;101838.88;;;5.74;72.56
46756;BME280;32506;52.826;-1.192;2022-12-05T09:09:33;101846.66;;;5.75;71.97
46756;BME280;32506;52.826;-1.192;2022-12-05T09:11:59;101855.44;;;5.76;72.05
46756;BME280;32506;52.826;-1.192;2022-12-05T09:14:25;101854.47;;;5.77;72.00
46756;BME280;32506;52.826;-1.192;2022-12-05T09:16:57;101860.44;;;5.79;72.25
46756;BME280;32506;52.826;-1.192;2022-12-05T09:19:22;101852.50;;;5.79;72.20
46756;BME280;32506;52.826;-1.192;2022-12-05T09:21:50;101857.66;;;5.80;72.73
46756;BME280;32506;52.826;-1.192;2022-12-05T09:24:16;101866.16;;;5.84;72.37
46756;BME280;32506;52.826;-1.192;2022-12-05T09:26:41;101865.16;;;5.85;72.55
46756;BME280;32506;52.826;-1.192;2022-12-05T09:29:08;101863.22;;;5.87;72.12
46756;BME280;32506;52.826;-1.192;2022-12-05T09:31:34;101869.03;;;5.91;72.88
46756;BME280;32506;52.826;-1.192;2022-12-05T09:34:00;101867.06;;;5.93;72.37
46756;BME280;32506;52.826;-1.192;2022-12-05T09:36:28;101876.41;;;5.97;72.67
46756;BME280;32506;52.826;-1.192;2022-12-05T09:38:57;101869.13;;;5.99;72.85
46756;BME280;32506;52.826;-1.192;2022-12-05T09:47:10;101867.41;;;6.08;72.97
46756;BME280;32506;52.826;-1.192;2022-12-05T09:50:02;101873.25;;;6.11;73.50
46756;BME280;32506;52.826;-1.192;2022-12-05T09:52:35;101880.09;;;6.14;73.31
46756;BME280;32506;52.826;-1.192;2022-12-05T09:55:12;101877.13;;;6.17;73.58
46756;BME280;32506;52.826;-1.192;2022-12-05T09:57:43;101882.97;;;6.20;73.42
46756;BME280;32506;52.826;-1.192;2022-12-05T10:00:10;101887.16;;;6.23;73.62
46756;BME280;32506;52.826;-1.192;2022-12-05T10:03:05;101884.03;;;6.28;73.35
46756;BME280;32506;52.826;-1.192;2022-12-05T10:05:56;101882.03;;;6.30;73.18
46756;BME280;32506;52.826;-1.192;2022-12-05T10:08:37;101884.41;;;6.33;73.86
46756;BME280;32506;52.826;-1.192;2022-12-05T10:11:25;101888.41;;;6.37;73.74
46756;BME280;32506;52.826;-1.192;2022-12-05T10:13:59;101884.47;;;6.41;73.80
46756;BME280;32506;52.826;-1.192;2022-12-05T10:16:37;101891.31;;;6.44;73.89
46756;BME280;32506;52.826;-1.192;2022-12-05T10:19:14;101892.81;;;6.46;73.96
46756;BME280;32506;52.826;-1.192;2022-12-05T10:21:49;101897.81;;;6.49;74.39
46756;BME280;32506;52.826;-1.192;2022-12-05T10:24:41;101890.53;;;6.51;73.62
46756;BME280;32506;52.826;-1.192;2022-12-05T10:27:18;101885.91;;;6.53;73.90
46756;BME280;32506;52.826;-1.192;2022-12-05T10:29:52;101876.78;;;6.56;74.08
46756;BME280;32506;52.826;-1.192;2022-12-05T10:32:30;101884.59;;;6.58;74.15
46756;BME280;32506;52.826;-1.192;2022-12-05T10:35:06;101878.13;;;6.60;73.84
46756;BME280;32506;52.826;-1.192;2022-12-05T10:37:38;101878.84;;;6.62;74.11
46756;BME280;32506;52.826;-1.192;2022-12-05T10:40:04;101876.84;;;6.64;74.13
46756;BME280;32506;52.826;-1.192;2022-12-05T10:42:33;101884.53;;;6.67;73.94
46756;BME280;32506;52.826;-1.192;2022-12-05T10:45:04;101884.19;;;6.70;73.91
46756;BME280;32506;52.826;-1.192;2022-12-05T10:47:31;101877.91;;;6.71;73.84
46756;BME280;32506;52.826;-1.192;2022-12-05T10:50:00;101884.69;;;6.74;73.95
46756;BME280;32506;52.826;-1.192;2022-12-05T10:52:27;101884.69;;;6.74;73.65
46756;BME280;32506;52.826;-1.192;2022-12-05T10:54:57;101887.06;;;6.77;73.78
46756;BME280;32506;52.826;-1.192;2022-12-05T10:57:28;101877.25;;;6.78;73.41
46756;BME280;32506;52.826;-1.192;2022-12-05T10:59:57;101885.06;;;6.79;73.18
46756;BME280;32506;52.826;-1.192;2022-12-05T11:02:33;101885.06;;;6.79;73.88
46756;BME280;32506;52.826;-1.192;2022-12-05T11:05:02;101889.25;;;6.82;73.75
46756;BME280;32506;52.826;-1.192;2022-12-05T11:07:29;101883.78;;;6.83;73.54
46756;BME280;32506;52.826;-1.192;2022-12-05T11:09:55;101881.97;;;6.84;73.72
46756;BME280;32506;52.826;-1.192;2022-12-05T11:15:18;101881.81;;;6.85;73.75
46756;BME280;32506;52.826;-1.192;2022-12-05T11:17:46;101885.13;;;6.87;73.73
46756;BME280;32506;52.826;-1.192;2022-12-05T11:22:40;101890.16;;;6.91;73.47
46756;BME280;32506;52.826;-1.192;2022-12-05T11:27:50;101892.84;;;6.99;73.75
46756;BME280;32506;52.826;-1.192;2022-12-05T11:30:24;101893.22;;;7.04;73.30
46756;BME280;32506;52.826;-1.192;2022-12-05T11:33:19;101892.91;;;7.07;73.84
46756;BME280;32506;52.826;-1.192;2022-12-05T11:35:50;101899.72;;;7.10;74.00
46756;BME280;32506;52.826;-1.192;2022-12-05T11:38:18;101896.09;;;7.11;73.82
46756;BME280;32506;52.826;-1.192;2022-12-05T11:40:54;101895.75;;;7.14;73.82
46756;BME280;32506;52.826;-1.192;2022-12-05T11:56:56;101897.00;;;7.28;73.93
46756;BME280;32506;52.826;-1.192;2022-12-05T12:02:30;101904.34;;;7.34;74.14
46756;BME280;32506;52.826;-1.192;2022-12-05T12:13:47;101884.78;;;7.43;74.48
46756;BME280;32506;52.826;-1.192;2022-12-05T12:16:45;101883.63;;;7.46;74.01
46756;BME280;32506;52.826;-1.192;2022-12-05T12:21:56;101888.44;;;7.50;73.80
46756;BME280;32506;52.826;-1.192;2022-12-05T12:27:31;101895.81;;;7.56;74.42
46756;BME280;32506;52.826;-1.192;2022-12-05T12:30:24;101891.00;;;7.60;73.80
46756;BME280;32506;52.826;-1.192;2022-12-05T12:33:12;101884.53;;;7.63;73.97
46756;BME280;32506;52.826;-1.192;2022-12-05T12:35:49;101886.69;;;7.67;74.36
46756;BME280;32506;52.826;-1.192;2022-12-05T12:40:55;101878.88;;;7.74;74.01
46756;BME280;32506;52.826;-1.192;2022-12-05T12:51:28;101868.94;;;7.84;73.85
46756;BME280;32506;52.826;-1.192;2022-12-05T12:57:00;101868.28;;;7.90;74.21
46756;BME280;32506;52.826;-1.192;2022-12-05T13:02:35;101873.94;;;7.96;74.04
46756;BME280;32506;52.826;-1.192;2022-12-05T13:05:30;101876.28;;;7.99;74.22
46756;BME280;32506;52.826;-1.192;2022-12-05T13:10:40;101878.63;;;8.10;74.16
46756;BME280;32506;52.826;-1.192;2022-12-05T13:13:12;101879.97;;;8.14;74.35
46756;BME280;32506;52.826;-1.192;2022-12-05T13:15:49;101882.97;;;8.19;74.01
46756;BME280;32506;52.826;-1.192;2022-12-05T13:18:33;101875.47;;;8.23;74.54
46756;BME280;32506;52.826;-1.192;2022-12-05T13:21:05;101878.81;;;8.25;74.05
46756;BME280;32506;52.826;-1.192;2022-12-05T13:23:37;101878.00;;;8.25;73.97
46756;BME280;32506;52.826;-1.192;2022-12-05T13:26:10;101878.47;;;8.28;74.38
46756;BME280;32506;52.826;-1.192;2022-12-05T13:28:39;101882.00;;;8.29;74.31
46756;BME280;32506;52.826;-1.192;2022-12-05T13:31:10;101878.47;;;8.28;74.01
46756;BME280;32506;52.826;-1.192;2022-12-05T13:33:46;101881.81;;;8.30;74.02
46756;BME280;32506;52.826;-1.192;2022-12-05T13:36:20;101881.81;;;8.30;74.19
46756;BME280;32506;52.826;-1.192;2022-12-05T13:41:55;101869.50;;;8.29;74.20
46756;BME280;32506;52.826;-1.192;2022-12-05T13:44:49;101869.50;;;8.29;74.07
46756;BME280;32506;52.826;-1.192;2022-12-05T13:47:21;101870.31;;;8.30;73.93
46756;BME280;32506;52.826;-1.192;2022-12-05T13:50:00;101871.00;;;8.32;74.14
46756;BME280;32506;52.826;-1.192;2022-12-05T13:52:31;101870.00;;;8.33;74.07
46756;BME280;32506;52.826;-1.192;2022-12-05T13:55:03;101868.31;;;8.32;74.24
46756;BME280;32506;52.826;-1.192;2022-12-05T14:02:50;101868.97;;;8.34;73.56
46756;BME280;32506;52.826;-1.192;2022-12-05T14:07:55;101876.97;;;8.34;73.43
46756;BME280;32506;52.826;-1.192;2022-12-05T14:29:02;101870.16;;;8.39;72.53
46756;BME280;32506;52.826;-1.192;2022-12-05T14:34:34;101867.97;;;8.35;72.13
46756;BME280;32506;52.826;-1.192;2022-12-05T14:37:17;101864.66;;;8.33;72.33
46756;BME280;32506;52.826;-1.192;2022-12-05T14:39:49;101868.31;;;8.32;72.27
46756;BME280;32506;52.826;-1.192;2022-12-05T14:42:34;101879.81;;;8.32;72.03
46756;BME280;32506;52.826;-1.192;2022-12-05T14:45:16;101871.97;;;8.31;72.23
46756;BME280;32506;52.826;-1.192;2022-12-05T14:47:58;101878.31;;;8.30;72.29
46756;BME280;32506;52.826;-1.192;2022-12-05T14:50:38;101873.16;;;8.28;71.72
46756;BME280;32506;52.826;-1.192;2022-12-05T14:55:43;101880.78;;;8.23;71.74
46756;BME280;32506;52.826;-1.192;2022-12-05T14:58:16;101883.63;;;8.21;72.06
46756;BME280;32506;52.826;-1.192;2022-12-05T15:00:45;101881.13;;;8.20;72.04
46756;BME280;32506;52.826;-1.192;2022-12-05T15:03:22;101879.63;;;8.17;71.98
46756;BME280;32506;52.826;-1.192;2022-12-05T15:05:49;101879.97;;;8.14;72.12
46756;BME280;32506;52.826;-1.192;2022-12-05T15:08:15;101880.31;;;8.11;71.82
46756;BME280;32506;52.826;-1.192;2022-12-05T15:10:41;101882.28;;;8.09;72.38
46756;BME280;32506;52.826;-1.192;2022-12-05T15:13:20;101892.28;;;8.07;71.65
46756;BME280;32506;52.826;-1.192;2022-12-05T15:16:11;101881.94;;;8.04;72.24
46756;BME280;32506;52.826;-1.192;2022-12-05T15:18:39;101889.44;;;8.00;72.22